Accueil
METAR-TAF:

METAR-TAF

Aéroports :

Aéroport international de N'Djaména

Ndjamena, Tchad

latitude: 12-08N, longitude: 015-02E, altitude: 295 m

Observation

Le bulletin a été fait il y a 47 minutes, à 22:00 UTC
Vent 4 kt de sud-ouest
Température 33°C
Humidité 20%
Pression 1008 hPa
Visibilité: 6000 m

METAR: FTTJ 192200Z 23004KT 6000 NSC 33/07 Q1008 NOSIG

Heure: 23:47 (22:47 UTC)

Prévision

Le bulletin a été fait il y a 5 heures et 47 minutes, à 17:00 UTC
Prévision valable du 19 à 18 UTC au 20 à 24 UTC
Vent 6 kt de nord/nord-est
Visibilité: 6000 m

TAF: FTTJ 191700Z 1918/2024 03006KT 6000 NSC

Observations et prévisions météorologiques de plus de 4000 aéroports (messages METAR et TAF).

Les stations disponibles sont représentées par des disques jaunes et rouges sur la carte.

Passer la souris dessus pour voir le nom de la station.

Cliquer dessus pour voir les observations et prévisions météorologiques.

Pour changer de carte: cliquez sur les boutons verts avec une croix noire pour zoomer, sur le bouton vert avec un tiret pour effectuer un zoom arrière, ou sur les flèches vertes pour les cartes adjacentes.


METAR-TAF: